createdAt,value
2017-12-10T00:00:09.156Z,-0.99
2017-12-10T00:01:13.784Z,-0.98
2017-12-10T00:02:18.709Z,-0.99
2017-12-10T00:03:23.348Z,-0.92
2017-12-10T00:04:28.001Z,-0.95
2017-12-10T00:05:32.683Z,-0.97
2017-12-10T00:06:37.855Z,-0.98
2017-12-10T00:07:42.493Z,-0.98
2017-12-10T00:08:47.179Z,-0.98
2017-12-10T00:09:51.837Z,-0.96
2017-12-10T00:10:56.594Z,-0.93
2017-12-10T00:12:01.388Z,-0.97
2017-12-10T00:13:06.475Z,-0.92
2017-12-10T00:14:11.360Z,-0.93
2017-12-10T00:15:16.144Z,-0.88
2017-12-10T00:16:20.888Z,-0.84
2017-12-10T00:17:26.491Z,-0.85
2017-12-10T00:18:31.353Z,-0.86
2017-12-10T00:19:36.504Z,-0.84
2017-12-10T00:20:41.287Z,-0.82
2017-12-10T00:21:46.258Z,-0.85
2017-12-10T00:22:51.063Z,-0.85
2017-12-10T00:23:55.822Z,-0.82
2017-12-10T00:25:00.498Z,-0.83
2017-12-10T00:26:05.657Z,-0.79
2017-12-10T00:27:10.343Z,-0.78
2017-12-10T00:28:15.090Z,-0.80
2017-12-10T00:29:19.865Z,-0.81
2017-12-10T00:30:24.690Z,-0.79
2017-12-10T00:31:29.447Z,-0.78
2017-12-10T00:32:34.529Z,-0.78
2017-12-10T00:33:39.321Z,-0.81
2017-12-10T00:34:44.072Z,-0.79
2017-12-10T00:35:48.858Z,-0.81
2017-12-10T00:36:53.576Z,-0.78
2017-12-10T00:37:58.274Z,-0.77
2017-12-10T00:39:03.052Z,-0.73
2017-12-10T00:40:07.767Z,-0.71
2017-12-10T00:41:12.501Z,-0.71
2017-12-10T00:42:18.617Z,-0.72
2017-12-10T00:43:23.413Z,-0.71
2017-12-10T00:44:28.545Z,-0.73
2017-12-10T00:45:33.325Z,-0.69
2017-12-10T00:46:38.184Z,-0.68
2017-12-10T00:47:42.881Z,-0.67
2017-12-10T00:48:47.702Z,-0.71
2017-12-10T00:49:52.475Z,-0.69
2017-12-10T00:50:57.550Z,-0.64
2017-12-10T00:52:02.252Z,-0.66
2017-12-10T00:53:06.889Z,-0.66
2017-12-10T00:54:11.579Z,-0.67
2017-12-10T00:55:16.221Z,-0.67
2017-12-10T00:56:20.859Z,-0.66
2017-12-10T00:57:25.502Z,-0.66
2017-12-10T00:58:30.274Z,-0.66
2017-12-10T00:59:35.104Z,-0.62
2017-12-10T01:00:40.871Z,-0.64
2017-12-10T01:01:45.966Z,-0.60
2017-12-10T01:02:50.592Z,-0.66
2017-12-10T01:03:55.271Z,-0.65
2017-12-10T01:05:00.066Z,-0.65
2017-12-10T01:06:04.782Z,-0.66
2017-12-10T01:07:09.557Z,-0.65
2017-12-10T01:08:14.357Z,-0.65
2017-12-10T01:09:19.708Z,-0.65
2017-12-10T01:10:24.279Z,-0.67
2017-12-10T01:11:28.873Z,-0.70
2017-12-10T01:12:33.399Z,-0.71
2017-12-10T01:13:38.108Z,-0.69
2017-12-10T01:14:42.948Z,-0.69
2017-12-10T01:15:47.570Z,-0.68
2017-12-10T01:16:52.266Z,-0.66
2017-12-10T01:17:56.894Z,-0.65
2017-12-10T01:19:01.651Z,-0.68
2017-12-10T01:20:06.347Z,-0.66
2017-12-10T01:21:11.304Z,-0.72
2017-12-10T01:22:16.015Z,-0.72
2017-12-10T01:23:20.730Z,-0.69
2017-12-10T01:24:25.390Z,-0.70
2017-12-10T01:25:30.204Z,-0.70
2017-12-10T01:26:34.972Z,-0.78
2017-12-10T01:27:40.273Z,-0.73
2017-12-10T01:28:45.018Z,-0.75
2017-12-10T01:29:49.853Z,-0.72
2017-12-10T01:30:54.604Z,-0.78
2017-12-10T01:31:59.624Z,-0.73
2017-12-10T01:33:04.399Z,-0.75
2017-12-10T01:34:09.468Z,-0.72
2017-12-10T01:35:14.238Z,-0.75
2017-12-10T01:36:19.025Z,-0.77
2017-12-10T01:37:23.821Z,-0.77
2017-12-10T01:38:28.625Z,-0.77
2017-12-10T01:39:33.437Z,-0.76
2017-12-10T01:40:38.529Z,-0.77
2017-12-10T01:41:43.366Z,-0.73
2017-12-10T01:42:48.054Z,-0.72
2017-12-10T01:43:52.826Z,-0.72
2017-12-10T01:44:57.600Z,-0.72
2017-12-10T01:46:02.356Z,-0.78
2017-12-10T01:47:07.189Z,-0.74
2017-12-10T01:48:12.666Z,-0.78
2017-12-10T01:49:17.466Z,-0.83
2017-12-10T01:50:22.331Z,-0.82
2017-12-10T01:51:27.127Z,-0.82
2017-12-10T01:52:31.920Z,-0.75
2017-12-10T01:53:37.006Z,-0.74
2017-12-10T01:54:41.810Z,-0.78
2017-12-10T01:55:46.616Z,-0.78
2017-12-10T01:56:51.409Z,-0.75
2017-12-10T01:57:56.260Z,-0.75
2017-12-10T01:59:01.158Z,-0.75
2017-12-10T02:00:06.110Z,-0.76
2017-12-10T02:01:10.704Z,-0.77
2017-12-10T02:02:15.523Z,-0.78
2017-12-10T02:03:20.160Z,-0.80
2017-12-10T02:04:24.833Z,-0.80
2017-12-10T02:05:29.561Z,-0.77
2017-12-10T02:06:35.081Z,-0.74
2017-12-10T02:07:40.701Z,-0.75
2017-12-10T02:08:46.508Z,-0.75
2017-12-10T02:09:51.335Z,-0.73
2017-12-10T02:10:56.214Z,-0.73
2017-12-10T02:12:00.991Z,-0.76
2017-12-10T02:13:06.042Z,-0.77
2017-12-10T02:14:10.790Z,-0.79
2017-12-10T02:15:15.679Z,-0.79
2017-12-10T02:16:20.500Z,-0.79
2017-12-10T02:17:25.206Z,-0.78
2017-12-10T02:18:29.949Z,-0.80
2017-12-10T02:19:34.988Z,-0.78
2017-12-10T02:20:39.745Z,-0.80
2017-12-10T02:21:44.514Z,-0.79
2017-12-10T02:22:49.321Z,-0.82
2017-12-10T02:23:54.140Z,-0.80
2017-12-10T02:24:58.860Z,-0.75
2017-12-10T02:26:03.921Z,-0.79
2017-12-10T02:27:08.677Z,-0.84
2017-12-10T02:28:13.554Z,-0.79
2017-12-10T02:29:18.419Z,-0.82
2017-12-10T02:30:23.180Z,-0.78
2017-12-10T02:31:27.969Z,-0.81
2017-12-10T02:32:33.066Z,-0.80
2017-12-10T02:33:38.827Z,-0.77
2017-12-10T02:34:43.458Z,-0.78
2017-12-10T02:35:48.123Z,-0.77
2017-12-10T02:36:52.713Z,-0.76
2017-12-10T02:37:57.319Z,-0.77
2017-12-10T02:39:02.409Z,-0.77
2017-12-10T02:40:07.302Z,-0.76
2017-12-10T02:41:11.991Z,-0.74
2017-12-10T02:42:16.723Z,-0.77
2017-12-10T02:43:21.400Z,-0.78
2017-12-10T02:44:26.098Z,-0.79
2017-12-10T02:45:31.239Z,-0.90
2017-12-10T02:46:35.925Z,-0.98
2017-12-10T02:47:40.643Z,-1.09
2017-12-10T02:48:45.343Z,-1.12
2017-12-10T02:49:50.018Z,-1.10
2017-12-10T02:50:54.718Z,-1.13
2017-12-10T02:51:59.787Z,-1.07
2017-12-10T02:53:04.516Z,-1.05
2017-12-10T02:54:09.140Z,-1.00
2017-12-10T02:55:13.763Z,-1.00
2017-12-10T02:56:18.447Z,-1.00
2017-12-10T02:57:23.075Z,-0.97
2017-12-10T02:58:28.219Z,-0.98
2017-12-10T02:59:32.967Z,-0.99
2017-12-10T03:00:38.635Z,-1.03
2017-12-10T03:01:43.412Z,-0.99
2017-12-10T03:02:48.309Z,-1.01
2017-12-10T03:03:53.114Z,-1.01
2017-12-10T03:04:58.171Z,-1.00
2017-12-10T03:06:03.126Z,-1.03
2017-12-10T03:07:07.914Z,-1.03
2017-12-10T03:08:12.713Z,-1.05
2017-12-10T03:09:18.464Z,-1.01
2017-12-10T03:10:23.380Z,-1.00
2017-12-10T03:11:28.416Z,-1.06
2017-12-10T03:12:33.070Z,-1.08
2017-12-10T03:13:37.814Z,-1.08
2017-12-10T03:14:42.604Z,-1.12
2017-12-10T03:15:47.340Z,-1.10
2017-12-10T03:16:51.956Z,-1.07
2017-12-10T03:17:56.862Z,-1.05
2017-12-10T03:19:01.502Z,-1.07
2017-12-10T03:20:06.329Z,-1.09
2017-12-10T03:21:11.101Z,-1.06
2017-12-10T03:22:16.327Z,-1.07
2017-12-10T03:23:20.981Z,-1.08
2017-12-10T03:24:26.015Z,-1.08
2017-12-10T03:25:30.700Z,-1.07
2017-12-10T03:26:35.653Z,-1.06
2017-12-10T03:27:40.374Z,-1.02
2017-12-10T03:28:45.070Z,-1.02
2017-12-10T03:29:49.683Z,-0.99
2017-12-10T03:30:54.569Z,-0.97
2017-12-10T03:31:59.202Z,-0.97
2017-12-10T03:33:03.795Z,-0.96
2017-12-10T03:34:08.425Z,-0.90
2017-12-10T03:35:13.077Z,-0.88
2017-12-10T03:36:18.253Z,-0.85
2017-12-10T03:37:23.244Z,-0.87
2017-12-10T03:38:27.970Z,-0.86
2017-12-10T03:39:32.751Z,-0.85
2017-12-10T03:40:37.396Z,-0.85
2017-12-10T03:41:42.076Z,-0.85
2017-12-10T03:42:46.675Z,-0.84
2017-12-10T03:43:51.556Z,-0.84
2017-12-10T03:44:56.167Z,-0.80
2017-12-10T03:46:00.867Z,-0.81
2017-12-10T03:47:05.538Z,-0.82
2017-12-10T03:48:10.292Z,-0.79
2017-12-10T03:49:15.928Z,-0.77
2017-12-10T03:50:20.782Z,-0.82
2017-12-10T03:51:25.379Z,-0.78
2017-12-10T03:52:29.910Z,-0.78
2017-12-10T03:53:34.611Z,-0.75
2017-12-10T03:54:39.306Z,-0.74
2017-12-10T03:55:44.012Z,-0.75
2017-12-10T03:56:49.080Z,-0.71
2017-12-10T03:57:54.539Z,-0.68
2017-12-10T03:58:59.220Z,-0.69
2017-12-10T04:00:03.872Z,-0.68
2017-12-10T04:01:09.028Z,-0.67
2017-12-10T04:02:13.723Z,-0.70
2017-12-10T04:03:18.673Z,-0.70
2017-12-10T04:04:23.348Z,-0.71
2017-12-10T04:05:27.958Z,-0.65
2017-12-10T04:06:32.513Z,-0.64
2017-12-10T04:07:37.100Z,-0.65
2017-12-10T04:08:41.794Z,-0.66
2017-12-10T04:09:46.503Z,-0.65
2017-12-10T04:10:51.145Z,-0.63
2017-12-10T04:11:55.807Z,-0.65
2017-12-10T04:13:00.482Z,-0.69
2017-12-10T04:14:05.350Z,-0.68
2017-12-10T04:15:10.369Z,-0.63
2017-12-10T04:16:15.075Z,-0.63
2017-12-10T04:17:19.812Z,-0.62
2017-12-10T04:18:24.511Z,-0.65
2017-12-10T04:19:29.215Z,-0.60
2017-12-10T04:20:33.870Z,-0.61
2017-12-10T04:21:38.870Z,-0.63
2017-12-10T04:22:43.548Z,-0.62
2017-12-10T04:23:48.251Z,-0.59
2017-12-10T04:24:52.971Z,-0.62
2017-12-10T04:25:57.652Z,-0.60
2017-12-10T04:27:02.369Z,-0.62
2017-12-10T04:28:07.441Z,-0.57
2017-12-10T04:29:12.244Z,-0.57
2017-12-10T04:30:17.159Z,-0.58
2017-12-10T04:31:21.958Z,-0.56
2017-12-10T04:32:26.626Z,-0.54
2017-12-10T04:33:32.217Z,-0.55
2017-12-10T04:34:37.219Z,-0.56
2017-12-10T04:35:41.902Z,-0.56
2017-12-10T04:36:46.585Z,-0.59
2017-12-10T04:37:51.314Z,-0.57
2017-12-10T04:38:56.114Z,-0.56
2017-12-10T04:40:00.905Z,-0.56
2017-12-10T04:41:05.958Z,-0.53
2017-12-10T04:42:10.625Z,-0.52
2017-12-10T04:43:15.342Z,-0.53
2017-12-10T04:44:20.084Z,-0.54
2017-12-10T04:45:24.892Z,-0.52
2017-12-10T04:46:40.434Z,-0.54
2017-12-10T04:47:45.392Z,-0.51
2017-12-10T04:48:50.048Z,-0.49
2017-12-10T04:49:55.855Z,-0.50
2017-12-10T04:51:01.519Z,-0.47
2017-12-10T04:52:06.245Z,-0.48
2017-12-10T04:53:10.869Z,-0.47
2017-12-10T04:54:15.735Z,-0.50
2017-12-10T04:55:20.471Z,-0.51
2017-12-10T04:56:25.447Z,-0.48
2017-12-10T04:57:30.161Z,-0.46
2017-12-10T04:58:34.919Z,-0.46
2017-12-10T04:59:39.645Z,-0.46
2017-12-10T05:00:44.604Z,-0.49
2017-12-10T05:01:49.298Z,-0.49
2017-12-10T05:02:53.996Z,-0.47
2017-12-10T05:03:58.725Z,-0.46
2017-12-10T05:05:03.544Z,-0.46
2017-12-10T05:06:08.348Z,-0.47
2017-12-10T05:07:13.599Z,-0.46
2017-12-10T05:08:19.352Z,-0.44
2017-12-10T05:09:24.013Z,-0.43
2017-12-10T05:10:28.738Z,-0.46
2017-12-10T05:11:33.388Z,-0.48
2017-12-10T05:12:38.155Z,-0.45
2017-12-10T05:13:43.086Z,-0.44
2017-12-10T05:14:47.765Z,-0.43
2017-12-10T05:15:52.537Z,-0.42
2017-12-10T05:16:57.314Z,-0.44
2017-12-10T05:18:02.026Z,-0.40
2017-12-10T05:19:06.734Z,-0.43
2017-12-10T05:20:11.774Z,-0.44
2017-12-10T05:21:16.521Z,-0.41
2017-12-10T05:22:21.371Z,-0.37
2017-12-10T05:23:26.158Z,-0.41
2017-12-10T05:24:30.816Z,-0.41
2017-12-10T05:25:35.518Z,-0.37
2017-12-10T05:26:40.518Z,-0.40
2017-12-10T05:27:45.208Z,-0.43
2017-12-10T05:28:49.814Z,-0.43
2017-12-10T05:29:54.407Z,-0.40
2017-12-10T05:30:59.041Z,-0.42
2017-12-10T05:32:03.657Z,-0.41
2017-12-10T05:33:08.645Z,-0.43
2017-12-10T05:34:13.215Z,-0.39
2017-12-10T05:35:17.794Z,-0.42
2017-12-10T05:36:22.441Z,-0.42
2017-12-10T05:37:27.160Z,-0.44
2017-12-10T05:38:32.721Z,-0.41
2017-12-10T05:39:37.713Z,-0.43
2017-12-10T05:40:42.445Z,-0.42
2017-12-10T05:41:48.764Z,-0.45
2017-12-10T05:42:53.487Z,-0.42
2017-12-10T05:43:58.413Z,-0.44
2017-12-10T05:45:03.417Z,-0.40
2017-12-10T05:46:08.240Z,-0.40
2017-12-10T05:47:13.092Z,-0.41
2017-12-10T05:48:17.877Z,-0.41
2017-12-10T05:49:22.712Z,-0.42
2017-12-10T05:50:27.992Z,-0.42
2017-12-10T05:51:33.159Z,-0.40
2017-12-10T05:52:37.961Z,-0.41
2017-12-10T05:53:42.814Z,-0.37
2017-12-10T05:54:47.641Z,-0.40
2017-12-10T05:55:52.493Z,-0.34
2017-12-10T05:56:57.252Z,-0.28
2017-12-10T05:58:02.354Z,-0.31
2017-12-10T05:59:07.096Z,-0.31
2017-12-10T06:00:12.229Z,-0.30
2017-12-10T06:01:17.036Z,-0.35
2017-12-10T06:02:21.807Z,-0.33
2017-12-10T06:03:26.504Z,-0.35
2017-12-10T06:04:31.517Z,-0.39
2017-12-10T06:05:36.300Z,-0.35
2017-12-10T06:06:41.081Z,-0.35
2017-12-10T06:07:45.847Z,-0.35
2017-12-10T06:08:50.646Z,-0.31
2017-12-10T06:09:55.501Z,-0.32
2017-12-10T06:11:00.602Z,-0.32
2017-12-10T06:12:05.394Z,-0.31
2017-12-10T06:13:11.230Z,-0.32
2017-12-10T06:14:15.886Z,-0.30
2017-12-10T06:15:20.636Z,-0.28
2017-12-10T06:16:25.324Z,-0.30
2017-12-10T06:17:30.289Z,-0.30
2017-12-10T06:18:35.007Z,-0.31
2017-12-10T06:19:39.768Z,-0.31
2017-12-10T06:20:44.577Z,-0.28
2017-12-10T06:21:49.424Z,-0.29
2017-12-10T06:22:54.224Z,-0.28
2017-12-10T06:23:59.377Z,-0.29
2017-12-10T06:25:04.031Z,-0.33
2017-12-10T06:26:08.740Z,-0.29
2017-12-10T06:27:13.445Z,-0.26
2017-12-10T06:28:18.189Z,-0.30
2017-12-10T06:29:22.942Z,-0.30
2017-12-10T06:30:27.930Z,-0.31
2017-12-10T06:31:32.744Z,-0.30
2017-12-10T06:32:37.515Z,-0.33
2017-12-10T06:33:42.193Z,-0.32
2017-12-10T06:34:46.962Z,-0.30
2017-12-10T06:35:51.703Z,-0.34
2017-12-10T06:36:56.757Z,-0.32
2017-12-10T06:38:01.401Z,-0.32
2017-12-10T06:39:06.106Z,-0.30
2017-12-10T06:40:10.773Z,-0.28
2017-12-10T06:41:15.370Z,-0.27
2017-12-10T06:42:19.983Z,-0.27
2017-12-10T06:43:25.021Z,-0.27
2017-12-10T06:44:29.733Z,-0.37
2017-12-10T06:45:34.444Z,-0.36
2017-12-10T06:46:39.164Z,-0.33
2017-12-10T06:47:43.902Z,-0.38
2017-12-10T06:48:48.668Z,-0.32
2017-12-10T06:49:53.560Z,-0.34
2017-12-10T06:50:58.200Z,-0.34
2017-12-10T06:52:02.798Z,-0.34
2017-12-10T06:53:07.433Z,-0.31
2017-12-10T06:54:12.061Z,-0.38
2017-12-10T06:55:16.637Z,-0.37
2017-12-10T06:56:21.537Z,-0.32
2017-12-10T06:57:26.129Z,-0.32
2017-12-10T06:58:30.831Z,-0.37
2017-12-10T06:59:35.542Z,-0.33
2017-12-10T07:00:40.462Z,-0.34
2017-12-10T07:01:45.150Z,-0.37
2017-12-10T07:02:50.166Z,-0.37
2017-12-10T07:03:54.877Z,-0.40
2017-12-10T07:04:59.641Z,-0.39
2017-12-10T07:06:04.414Z,-0.40
2017-12-10T07:07:09.235Z,-0.42
2017-12-10T07:08:14.022Z,-0.39
2017-12-10T07:09:18.998Z,-0.34
2017-12-10T07:10:23.722Z,-0.35
2017-12-10T07:11:29.373Z,-0.36
2017-12-10T07:12:34.009Z,-0.34
2017-12-10T07:13:38.709Z,-0.41
2017-12-10T07:14:43.402Z,-0.36
2017-12-10T07:15:48.451Z,-0.36
2017-12-10T07:16:53.146Z,-0.39
2017-12-10T07:17:57.822Z,-0.38
2017-12-10T07:19:02.569Z,-0.37
2017-12-10T07:20:07.286Z,-0.37
2017-12-10T07:21:13.492Z,-0.40
2017-12-10T07:22:18.334Z,-0.39
2017-12-10T07:23:23.376Z,-0.40
2017-12-10T07:24:28.228Z,-0.38
2017-12-10T07:25:33.062Z,-0.37
2017-12-10T07:26:38.175Z,-0.34
2017-12-10T07:27:43.354Z,-0.40
2017-12-10T07:28:48.169Z,-0.33
2017-12-10T07:29:52.992Z,-0.34
2017-12-10T07:30:57.881Z,-0.35
2017-12-10T07:32:02.692Z,-0.37
2017-12-10T07:33:07.453Z,-0.39
2017-12-10T07:34:12.558Z,-0.37
2017-12-10T07:35:17.300Z,-0.37
2017-12-10T07:36:22.079Z,-0.38
2017-12-10T07:37:26.888Z,-0.33
2017-12-10T07:38:31.706Z,-0.33
2017-12-10T07:39:36.511Z,-0.41
2017-12-10T07:40:41.597Z,-0.41
2017-12-10T07:41:46.440Z,-0.47
2017-12-10T07:42:51.270Z,-0.40
2017-12-10T07:43:56.087Z,-0.44
2017-12-10T07:45:00.923Z,-0.41
2017-12-10T07:46:05.733Z,-0.41
2017-12-10T07:47:11.026Z,-0.40
2017-12-10T07:48:15.855Z,-0.35
2017-12-10T07:49:20.655Z,-0.35
2017-12-10T07:50:25.348Z,-0.34
2017-12-10T07:51:30.079Z,-0.33
2017-12-10T07:52:34.736Z,-0.34
2017-12-10T07:53:39.828Z,-0.32
2017-12-10T07:54:44.559Z,-0.33
2017-12-10T07:55:50.001Z,-0.31
2017-12-10T07:56:54.899Z,-0.29
2017-12-10T07:58:01.506Z,-0.29
2017-12-10T07:59:06.721Z,-0.32
2017-12-10T08:00:12.116Z,-0.32
2017-12-10T08:01:16.927Z,-0.30
2017-12-10T08:02:21.697Z,-0.32
2017-12-10T08:03:26.512Z,-0.24
2017-12-10T08:04:32.119Z,-0.34
2017-12-10T08:05:38.246Z,-0.32
2017-12-10T08:06:43.071Z,-0.31
2017-12-10T08:07:47.892Z,-0.30
2017-12-10T08:08:52.786Z,-0.30
2017-12-10T08:09:57.562Z,-0.30
2017-12-10T08:11:02.360Z,-0.34
2017-12-10T08:12:07.691Z,-0.33
2017-12-10T08:13:12.470Z,-0.30
2017-12-10T08:14:17.295Z,-0.31
2017-12-10T08:15:22.034Z,-0.31
2017-12-10T08:16:26.747Z,-0.25
2017-12-10T08:17:31.379Z,-0.24
2017-12-10T08:18:36.608Z,-0.28
2017-12-10T08:19:41.465Z,-0.30
2017-12-10T08:20:46.043Z,-0.26
2017-12-10T08:21:51.980Z,-0.26
2017-12-10T08:22:56.940Z,-0.31
2017-12-10T08:24:01.803Z,-0.26
2017-12-10T08:25:06.901Z,-0.26
2017-12-10T08:26:13.538Z,-0.31
2017-12-10T08:27:18.345Z,-0.32
2017-12-10T08:28:23.157Z,-0.31
2017-12-10T08:29:27.964Z,-0.29
2017-12-10T08:30:33.212Z,-0.38
2017-12-10T08:31:38.312Z,-0.37
2017-12-10T08:32:43.130Z,-0.31
2017-12-10T08:33:47.972Z,-0.33
2017-12-10T08:34:52.833Z,-0.32
2017-12-10T08:35:57.734Z,-0.30
2017-12-10T08:37:02.731Z,-0.27
2017-12-10T08:38:07.972Z,-0.33
2017-12-10T08:39:12.905Z,-0.27
2017-12-10T08:40:17.725Z,-0.32
2017-12-10T08:41:22.579Z,-0.34
2017-12-10T08:42:27.444Z,-0.33
2017-12-10T08:43:32.300Z,-0.26
2017-12-10T08:44:37.619Z,-0.31
2017-12-10T08:45:42.465Z,-0.32
2017-12-10T08:46:48.296Z,-0.26
2017-12-10T08:47:53.191Z,-0.33
2017-12-10T08:48:58.025Z,-0.30
2017-12-10T08:50:02.942Z,-0.22
2017-12-10T08:51:08.194Z,-0.29
2017-12-10T08:52:13.052Z,-0.38
2017-12-10T08:53:17.887Z,-0.25
2017-12-10T08:54:22.735Z,-0.30
2017-12-10T08:55:27.679Z,-0.34
2017-12-10T08:56:32.514Z,-0.25
2017-12-10T08:57:37.807Z,-0.30
2017-12-10T08:58:43.298Z,-0.32
2017-12-10T08:59:48.100Z,-0.35
2017-12-10T09:00:52.963Z,-0.33
2017-12-10T09:01:57.891Z,-0.30
2017-12-10T09:03:02.777Z,-0.30
2017-12-10T09:04:08.530Z,-0.34
2017-12-10T09:05:13.429Z,-0.32
2017-12-10T09:06:18.391Z,-0.27
2017-12-10T09:07:23.243Z,-0.32
2017-12-10T09:08:28.085Z,-0.32
2017-12-10T09:09:33.022Z,-0.33
2017-12-10T09:10:38.251Z,-0.33
2017-12-10T09:11:43.153Z,-0.33
2017-12-10T09:12:48.006Z,-0.29
2017-12-10T09:13:52.834Z,-0.23
2017-12-10T09:14:57.703Z,-0.16
2017-12-10T09:16:02.510Z,-0.23
2017-12-10T09:17:08.116Z,-0.24
2017-12-10T09:18:13.098Z,-0.26
2017-12-10T09:19:17.984Z,-0.27
2017-12-10T09:20:22.963Z,-0.25
2017-12-10T09:21:27.709Z,-0.21
2017-12-10T09:22:32.493Z,-0.24
2017-12-10T09:23:37.590Z,-0.21
2017-12-10T09:24:42.337Z,-0.31
2017-12-10T09:25:47.113Z,-0.35
2017-12-10T09:26:51.993Z,-0.33
2017-12-10T09:27:56.658Z,-0.30
2017-12-10T09:29:01.366Z,-0.29
2017-12-10T09:30:06.300Z,-0.27
2017-12-10T09:31:10.966Z,-0.29
2017-12-10T09:32:15.562Z,-0.27
2017-12-10T09:33:20.329Z,-0.37
2017-12-10T09:34:24.994Z,-0.29
2017-12-10T09:35:29.838Z,-0.34
2017-12-10T09:36:34.853Z,-0.44
2017-12-10T09:37:39.580Z,-0.44
2017-12-10T09:38:44.436Z,-0.44
2017-12-10T09:39:49.275Z,-0.55
2017-12-10T09:40:54.987Z,-0.52
2017-12-10T09:41:59.867Z,-0.57
2017-12-10T09:43:05.090Z,-0.55
2017-12-10T09:44:10.039Z,-0.60
2017-12-10T09:45:14.929Z,-0.62
2017-12-10T09:46:19.777Z,-0.58
2017-12-10T09:47:24.690Z,-0.58
2017-12-10T09:48:29.536Z,-0.62
2017-12-10T09:49:34.634Z,-0.63
2017-12-10T09:50:39.510Z,-0.67
2017-12-10T09:51:44.403Z,-0.65
2017-12-10T09:52:49.335Z,-0.60
2017-12-10T09:53:54.175Z,-0.60
2017-12-10T09:55:00.024Z,-0.67
2017-12-10T09:56:05.069Z,-0.66
2017-12-10T09:57:09.980Z,-0.60
2017-12-10T09:58:14.882Z,-0.62
2017-12-10T09:59:19.710Z,-0.60
2017-12-10T10:00:24.571Z,-0.62
2017-12-10T10:01:29.452Z,-0.62
2017-12-10T10:02:34.569Z,-0.57
2017-12-10T10:03:39.402Z,-0.57
2017-12-10T10:04:44.264Z,-0.56
2017-12-10T10:05:49.046Z,-0.58
2017-12-10T10:06:53.835Z,-0.59
2017-12-10T10:07:59.036Z,-0.62
2017-12-10T10:09:04.981Z,-0.59
2017-12-10T10:10:09.850Z,-0.63
2017-12-10T10:11:14.741Z,-0.62
2017-12-10T10:12:19.606Z,-0.60
2017-12-10T10:13:24.493Z,-0.59
2017-12-10T10:14:29.363Z,-0.62
2017-12-10T10:15:34.857Z,-0.63
2017-12-10T10:16:39.772Z,-0.65
2017-12-10T10:17:44.545Z,-0.65
2017-12-10T10:18:49.321Z,-0.70
2017-12-10T10:19:54.029Z,-0.71
2017-12-10T10:20:58.791Z,-0.72
2017-12-10T10:22:03.852Z,-0.71
2017-12-10T10:23:08.774Z,-0.72
2017-12-10T10:24:13.880Z,-0.70
2017-12-10T10:25:18.780Z,-0.70
2017-12-10T10:26:24.587Z,-0.72
2017-12-10T10:27:29.480Z,-0.77
2017-12-10T10:28:34.341Z,-0.76
2017-12-10T10:29:39.196Z,-0.80
2017-12-10T10:30:44.083Z,-0.80
2017-12-10T10:31:49.018Z,-0.87
2017-12-10T10:32:53.756Z,-0.86
2017-12-10T10:33:58.573Z,-0.87
2017-12-10T10:35:03.601Z,-0.84
2017-12-10T10:36:08.282Z,-0.83
2017-12-10T10:37:12.989Z,-0.88
2017-12-10T10:38:17.740Z,-0.97
2017-12-10T10:39:22.448Z,-0.94
2017-12-10T10:40:27.432Z,-0.96
2017-12-10T10:41:32.631Z,-1.01
2017-12-10T10:42:37.600Z,-1.04
2017-12-10T10:43:42.423Z,-1.06
2017-12-10T10:44:47.411Z,-1.09
2017-12-10T10:45:52.376Z,-1.04
2017-12-10T10:46:57.258Z,-1.12
2017-12-10T10:48:02.468Z,-1.13
2017-12-10T10:49:07.333Z,-1.16
2017-12-10T10:50:13.244Z,-1.17
2017-12-10T10:51:18.181Z,-1.25
2017-12-10T10:52:23.080Z,-1.17
2017-12-10T10:53:29.627Z,-1.21
2017-12-10T10:54:34.993Z,-1.26
2017-12-10T10:55:39.931Z,-1.18
2017-12-10T10:56:44.863Z,-1.29
2017-12-10T10:57:49.817Z,-1.25
2017-12-10T10:58:54.674Z,-1.27
2017-12-10T11:00:05.115Z,-1.26
2017-12-10T11:01:11.513Z,-1.33
2017-12-10T11:02:17.060Z,-1.34
2017-12-10T11:03:22.021Z,-1.33
2017-12-10T11:04:26.964Z,-1.36
2017-12-10T11:05:31.969Z,-1.28
2017-12-10T11:06:37.147Z,-1.30
2017-12-10T11:07:42.070Z,-1.43
2017-12-10T11:08:47.013Z,-1.41
2017-12-10T11:09:51.980Z,-1.44
2017-12-10T11:10:57.220Z,-1.44
2017-12-10T11:12:02.054Z,-1.44
2017-12-10T11:13:08.780Z,-1.52
2017-12-10T11:14:14.464Z,-1.47
2017-12-10T11:15:20.409Z,-1.46
2017-12-10T11:16:25.228Z,-1.55
2017-12-10T11:17:30.038Z,-1.56
2017-12-10T11:18:34.860Z,-1.55
2017-12-10T11:19:39.981Z,-1.54
2017-12-10T11:20:44.750Z,-1.59
2017-12-10T11:21:49.605Z,-1.64
2017-12-10T11:22:54.453Z,-1.64
2017-12-10T11:23:59.353Z,-1.63
2017-12-10T11:25:04.219Z,-1.61
2017-12-10T11:26:09.453Z,-1.64
2017-12-10T11:27:14.314Z,-1.62
2017-12-10T11:28:19.157Z,-1.63
2017-12-10T11:29:23.987Z,-1.64
2017-12-10T11:30:29.002Z,-1.64
2017-12-10T11:31:33.805Z,-1.68
2017-12-10T11:32:38.966Z,-1.60
2017-12-10T11:33:43.819Z,-1.62
2017-12-10T11:34:48.648Z,-1.69
2017-12-10T11:35:53.499Z,-1.65
2017-12-10T11:36:58.396Z,-1.72
2017-12-10T11:38:03.292Z,-1.72
2017-12-10T11:39:08.401Z,-1.71
2017-12-10T11:40:13.397Z,-1.75
2017-12-10T11:41:18.297Z,-1.78
2017-12-10T11:42:23.516Z,-1.74
2017-12-10T11:43:28.367Z,-1.76
2017-12-10T11:44:33.353Z,-1.78
2017-12-10T11:45:38.540Z,-1.81
2017-12-10T11:46:43.415Z,-1.83
2017-12-10T11:47:48.330Z,-1.79
2017-12-10T11:48:53.280Z,-1.78
2017-12-10T11:49:58.142Z,-1.79
2017-12-10T11:51:03.136Z,-1.78
2017-12-10T11:52:08.320Z,-1.79
2017-12-10T11:53:13.265Z,-1.83
2017-12-10T11:54:18.230Z,-1.77
2017-12-10T11:55:23.122Z,-1.81
2017-12-10T11:56:28.021Z,-1.79
2017-12-10T11:57:32.925Z,-1.80
2017-12-10T11:58:38.151Z,-1.76
2017-12-10T11:59:43.061Z,-1.77
2017-12-10T12:00:47.996Z,-1.84
2017-12-10T12:01:52.944Z,-1.80
2017-12-10T12:02:57.972Z,-1.83
2017-12-10T12:04:03.017Z,-1.79
2017-12-10T12:05:08.149Z,-1.85
2017-12-10T12:06:12.944Z,-1.90
2017-12-10T12:07:17.780Z,-1.92
2017-12-10T12:08:22.624Z,-1.83
2017-12-10T12:09:28.239Z,-1.90
2017-12-10T12:10:33.179Z,-1.87
2017-12-10T12:11:38.404Z,-1.92
2017-12-10T12:12:43.281Z,-1.90
2017-12-10T12:13:48.219Z,-1.90
2017-12-10T12:14:53.061Z,-1.96
2017-12-10T12:15:57.988Z,-1.88
2017-12-10T12:17:02.973Z,-1.92
2017-12-10T12:18:08.215Z,-1.86
2017-12-10T12:19:13.433Z,-1.86
2017-12-10T12:20:18.442Z,-1.89
2017-12-10T12:21:23.394Z,-1.90
2017-12-10T12:22:28.337Z,-1.94
2017-12-10T12:23:33.289Z,-1.97
2017-12-10T12:24:38.567Z,-1.96
2017-12-10T12:25:43.636Z,-2.01
2017-12-10T12:26:48.630Z,-2.01
2017-12-10T12:27:53.886Z,-1.99
2017-12-10T12:28:58.803Z,-1.96
2017-12-10T12:30:03.727Z,-1.97
2017-12-10T12:31:09.047Z,-1.93
2017-12-10T12:32:13.948Z,-1.93
2017-12-10T12:33:18.834Z,-2.00
2017-12-10T12:34:23.768Z,-1.93
2017-12-10T12:35:28.688Z,-1.91
2017-12-10T12:36:33.909Z,-1.94
2017-12-10T12:37:39.114Z,-1.93
2017-12-10T12:38:44.002Z,-1.97
2017-12-10T12:39:48.927Z,-2.01
2017-12-10T12:40:53.829Z,-1.99
2017-12-10T12:41:58.775Z,-2.01
2017-12-10T12:43:03.667Z,-2.02
2017-12-10T12:44:08.791Z,-1.96
2017-12-10T12:45:13.924Z,-1.92
2017-12-10T12:46:18.745Z,-2.01
2017-12-10T12:47:23.732Z,-1.92
2017-12-10T12:48:28.517Z,-1.95
2017-12-10T12:49:33.412Z,-1.92
2017-12-10T12:50:38.707Z,-2.00
2017-12-10T12:51:43.594Z,-1.94
2017-12-10T12:52:48.626Z,-1.98
2017-12-10T12:53:53.561Z,-1.86
2017-12-10T12:54:58.393Z,-1.89
2017-12-10T12:56:03.271Z,-1.92
2017-12-10T12:57:08.412Z,-1.83
2017-12-10T12:58:13.376Z,-1.87
2017-12-10T12:59:18.302Z,-1.81
2017-12-10T13:00:23.264Z,-1.86
2017-12-10T13:01:28.254Z,-1.83
2017-12-10T13:02:33.188Z,-1.74
2017-12-10T13:03:38.531Z,-1.85
2017-12-10T13:04:43.584Z,-1.81
2017-12-10T13:05:48.824Z,-1.81
2017-12-10T13:06:53.867Z,-1.80
2017-12-10T13:07:58.843Z,-1.76
2017-12-10T13:09:03.951Z,-1.72
2017-12-10T13:10:09.218Z,-1.79
2017-12-10T13:11:14.541Z,-1.76
2017-12-10T13:12:20.276Z,-1.74
2017-12-10T13:13:25.231Z,-1.72
2017-12-10T13:14:30.332Z,-1.76
2017-12-10T13:15:35.248Z,-1.72
2017-12-10T13:16:40.722Z,-1.72
2017-12-10T13:17:45.649Z,-1.73
2017-12-10T13:18:50.620Z,-1.73
2017-12-10T13:19:55.653Z,-1.66
2017-12-10T13:21:00.436Z,-1.70
2017-12-10T13:22:05.246Z,-1.71
2017-12-10T13:23:10.498Z,-1.68
2017-12-10T13:24:15.423Z,-1.71
2017-12-10T13:25:20.515Z,-1.65
2017-12-10T13:26:25.354Z,-1.68
2017-12-10T13:27:30.218Z,-1.72
2017-12-10T13:28:35.099Z,-1.65
2017-12-10T13:29:40.281Z,-1.66
2017-12-10T13:30:45.138Z,-1.63
2017-12-10T13:31:50.025Z,-1.67
2017-12-10T13:32:54.895Z,-1.66
2017-12-10T13:33:59.903Z,-1.71
2017-12-10T13:35:06.638Z,-1.68
2017-12-10T13:36:12.031Z,-1.75
2017-12-10T13:37:16.866Z,-1.69
2017-12-10T13:38:21.764Z,-1.66
2017-12-10T13:39:27.415Z,-1.79
2017-12-10T13:40:32.307Z,-1.64
2017-12-10T13:41:37.222Z,-1.66
2017-12-10T13:42:42.524Z,-1.69
2017-12-10T13:43:47.385Z,-1.63
2017-12-10T13:44:52.190Z,-1.58
2017-12-10T13:45:57.126Z,-1.56
2017-12-10T13:47:02.072Z,-1.54
2017-12-10T13:48:06.858Z,-1.47
2017-12-10T13:49:12.116Z,-1.35
2017-12-10T13:50:17.123Z,-1.37
2017-12-10T13:51:22.056Z,-1.34
2017-12-10T13:52:26.990Z,-1.33
2017-12-10T13:53:31.893Z,-1.42
2017-12-10T13:54:36.797Z,-1.45
2017-12-10T13:55:41.973Z,-1.48